createdAt,value
2022-08-05T00:00:18.689Z,90
2022-08-05T00:00:50.285Z,90
2022-08-05T00:01:20.623Z,90
2022-08-05T00:01:50.167Z,90
2022-08-05T00:02:23.965Z,90
2022-08-05T00:02:53.973Z,90
2022-08-05T00:03:23.634Z,90
2022-08-05T00:03:54.580Z,90
2022-08-05T00:04:25.592Z,90
2022-08-05T00:04:56.538Z,90
2022-08-05T00:06:04.601Z,90
2022-08-05T00:06:33.236Z,90
2022-08-05T00:07:00.226Z,90
2022-08-05T00:08:01.111Z,90
2022-08-05T00:08:37.388Z,90
2022-08-05T00:09:13.197Z,91
2022-08-05T00:09:35.613Z,91
2022-08-05T00:10:06.961Z,91
2022-08-05T00:10:37.682Z,91
2022-08-05T00:11:23.868Z,91
2022-08-05T00:11:49.337Z,91
2022-08-05T00:12:13.082Z,91
2022-08-05T00:12:48.478Z,91
2022-08-05T00:13:18.515Z,91
2022-08-05T00:13:44.086Z,91
2022-08-05T00:14:17.174Z,91
2022-08-05T00:14:45.761Z,91
2022-08-05T00:15:55.551Z,91
2022-08-05T00:16:18.874Z,91
2022-08-05T00:16:53.646Z,91
2022-08-05T00:17:21.192Z,91
2022-08-05T00:17:51.334Z,91
2022-08-05T00:18:22.932Z,91
2022-08-05T00:18:53.655Z,91
2022-08-05T00:19:24.998Z,91
2022-08-05T00:20:02.759Z,91
2022-08-05T00:20:28.949Z,91
2022-08-05T00:21:00.677Z,91
2022-08-05T00:21:30.481Z,91
2022-08-05T00:21:59.482Z,91
2022-08-05T00:22:31.002Z,91
2022-08-05T00:23:13.038Z,91
2022-08-05T00:23:46.142Z,91
2022-08-05T00:24:10.657Z,91
2022-08-05T00:24:35.319Z,91
2022-08-05T00:25:08.344Z,91
2022-08-05T00:25:46.107Z,91
2022-08-05T00:26:07.544Z,91
2022-08-05T00:26:38.134Z,91
2022-08-05T00:27:10.279Z,91
2022-08-05T00:27:42.927Z,91
2022-08-05T00:28:11.100Z,91
2022-08-05T00:28:42.383Z,91
2022-08-05T00:29:13.465Z,91
2022-08-05T00:29:53.103Z,91
2022-08-05T00:30:16.693Z,91
2022-08-05T00:30:46.126Z,91
2022-08-05T00:31:54.066Z,91
2022-08-05T00:32:19.420Z,91
2022-08-05T00:32:52.859Z,91
2022-08-05T00:34:54.080Z,91
2022-08-05T00:35:33.228Z,92
2022-08-05T00:36:16.343Z,92
2022-08-05T00:37:35.388Z,91
2022-08-05T00:38:02.304Z,92
2022-08-05T00:38:33.867Z,91
2022-08-05T00:39:06.061Z,91
2022-08-05T00:39:41.359Z,92
2022-08-05T00:40:06.419Z,92
2022-08-05T00:40:36.428Z,92
2022-08-05T00:41:06.823Z,92
2022-08-05T00:41:52.074Z,92
2022-08-05T00:42:08.504Z,92
2022-08-05T00:42:39.621Z,92
2022-08-05T00:43:10.541Z,91
2022-08-05T00:43:49.847Z,92
2022-08-05T00:44:12.654Z,92
2022-08-05T00:44:44.766Z,92
2022-08-05T00:45:15.418Z,92
2022-08-05T00:45:45.660Z,92
2022-08-05T00:46:16.209Z,91
2022-08-05T00:46:47.385Z,92
2022-08-05T00:47:18.788Z,92
2022-08-05T00:47:56.220Z,92
2022-08-05T00:48:31.299Z,92
2022-08-05T00:48:51.813Z,92
2022-08-05T00:49:26.264Z,91
2022-08-05T00:49:53.773Z,92
2022-08-05T00:50:25.155Z,92
2022-08-05T00:50:55.865Z,92
2022-08-05T00:51:50.806Z,92
2022-08-05T00:51:57.768Z,92
2022-08-05T00:52:29.033Z,92
2022-08-05T00:53:00.485Z,92
2022-08-05T00:54:00.575Z,92
2022-08-05T00:54:32.725Z,92
2022-08-05T00:55:04.097Z,92
2022-08-05T00:55:43.690Z,92
2022-08-05T00:56:07.949Z,92
2022-08-05T00:56:36.216Z,92
2022-08-05T00:57:07.214Z,92
2022-08-05T00:57:55.178Z,92
2022-08-05T00:58:11.255Z,92
2022-08-05T00:58:42.534Z,92
2022-08-05T00:59:11.746Z,92
2022-08-05T00:59:44.589Z,92
2022-08-05T01:00:14.662Z,92
2022-08-05T01:00:44.569Z,92
2022-08-05T01:01:16.016Z,92
2022-08-05T01:01:48.268Z,92
2022-08-05T01:02:17.864Z,92
2022-08-05T01:02:50.208Z,92
2022-08-05T01:03:23.421Z,92
2022-08-05T01:03:53.385Z,92
2022-08-05T01:04:26.776Z,92
2022-08-05T01:04:52.623Z,92
2022-08-05T01:05:24.166Z,92
2022-08-05T01:05:54.591Z,92
2022-08-05T01:06:32.794Z,92
2022-08-05T01:06:59.095Z,92
2022-08-05T01:07:28.007Z,92
2022-08-05T01:08:30.812Z,92
2022-08-05T01:09:03.783Z,92
2022-08-05T01:09:34.026Z,92
2022-08-05T01:10:02.965Z,92
2022-08-05T01:10:35.892Z,92
2022-08-05T01:11:07.565Z,92
2022-08-05T01:11:37.615Z,92
2022-08-05T01:12:17.915Z,92
2022-08-05T01:12:38.056Z,92
2022-08-05T01:13:13.304Z,92
2022-08-05T01:13:58.670Z,92
2022-08-05T01:14:10.765Z,92
2022-08-05T01:14:41.664Z,92
2022-08-05T01:15:35.267Z,92
2022-08-05T01:15:47.891Z,92
2022-08-05T01:16:14.558Z,92
2022-08-05T01:16:45.703Z,92
2022-08-05T01:17:16.286Z,92
2022-08-05T01:17:53.539Z,92
2022-08-05T01:18:19.125Z,92
2022-08-05T01:18:56.127Z,93
2022-08-05T01:19:20.708Z,92
2022-08-05T01:20:02.184Z,93
2022-08-05T01:20:23.285Z,93
2022-08-05T01:20:54.136Z,93
2022-08-05T01:21:24.845Z,93
2022-08-05T01:21:55.848Z,93
2022-08-05T01:22:27.950Z,93
2022-08-05T01:22:57.808Z,93
2022-08-05T01:23:28.886Z,93
2022-08-05T01:23:59.934Z,93
2022-08-05T01:24:30.384Z,93
2022-08-05T01:25:02.299Z,93
2022-08-05T01:25:40.776Z,93
2022-08-05T01:26:03.542Z,93
2022-08-05T01:26:34.664Z,93
2022-08-05T01:27:19.273Z,93
2022-08-05T01:27:36.864Z,93
2022-08-05T01:28:08.778Z,93
2022-08-05T01:28:39.305Z,93
2022-08-05T01:29:09.566Z,93
2022-08-05T01:29:41.246Z,93
2022-08-05T01:30:17.706Z,93
2022-08-05T01:30:50.640Z,93
2022-08-05T01:31:13.607Z,93
2022-08-05T01:31:45.338Z,93
2022-08-05T01:32:18.371Z,93
2022-08-05T01:32:46.768Z,93
2022-08-05T01:33:19.743Z,93
2022-08-05T01:33:49.260Z,93
2022-08-05T01:34:20.158Z,93
2022-08-05T01:34:50.941Z,93
2022-08-05T01:35:51.966Z,94
2022-08-05T01:36:28.234Z,94
2022-08-05T01:36:54.804Z,94
2022-08-05T01:37:26.131Z,94
2022-08-05T01:37:56.859Z,94
2022-08-05T01:38:29.995Z,94
2022-08-05T01:39:00.926Z,94
2022-08-05T01:39:45.905Z,94
2022-08-05T01:40:00.634Z,94
2022-08-05T01:40:31.847Z,94
2022-08-05T01:41:03.877Z,94
2022-08-05T01:41:33.974Z,94
2022-08-05T01:42:06.844Z,94
2022-08-05T01:42:35.766Z,94
2022-08-05T01:43:08.126Z,94
2022-08-05T01:43:37.886Z,94
2022-08-05T01:44:09.713Z,94
2022-08-05T01:44:39.383Z,94
2022-08-05T01:45:11.818Z,94
2022-08-05T01:45:43.130Z,94
2022-08-05T01:46:16.641Z,94
2022-08-05T01:46:46.741Z,94
2022-08-05T01:47:14.745Z,94
2022-08-05T01:47:45.855Z,94
2022-08-05T01:48:16.805Z,94
2022-08-05T01:48:49.698Z,94
2022-08-05T01:49:24.230Z,94
2022-08-05T01:50:01.885Z,94
2022-08-05T01:50:28.638Z,94
2022-08-05T01:50:54.900Z,94
2022-08-05T01:51:23.013Z,94
2022-08-05T01:51:56.502Z,94
2022-08-05T01:52:24.965Z,94
2022-08-05T01:52:55.903Z,94
2022-08-05T01:53:54.483Z,94
2022-08-05T01:54:29.103Z,94
2022-08-05T01:55:04.643Z,94
2022-08-05T01:55:30.956Z,94
2022-08-05T01:56:04.973Z,94
2022-08-05T01:58:11.158Z,94
2022-08-05T01:58:43.781Z,94
2022-08-05T01:59:08.068Z,94
2022-08-05T01:59:39.016Z,95
2022-08-05T02:00:11.842Z,95
2022-08-05T02:00:46.766Z,95
2022-08-05T02:01:12.173Z,95
2022-08-05T02:01:43.127Z,94
2022-08-05T02:02:14.070Z,95
2022-08-05T02:02:46.412Z,95
2022-08-05T02:03:24.201Z,95
2022-08-05T02:03:47.206Z,95
2022-08-05T02:04:17.924Z,95
2022-08-05T02:04:52.213Z,95
2022-08-05T02:05:23.351Z,95
2022-08-05T02:05:50.974Z,95
2022-08-05T02:06:37.074Z,95
2022-08-05T02:06:52.666Z,95
2022-08-05T02:07:24.355Z,95
2022-08-05T02:08:00.352Z,95
2022-08-05T02:08:30.698Z,95
2022-08-05T02:08:58.974Z,95
2022-08-05T02:09:28.165Z,95
2022-08-05T02:09:58.699Z,95
2022-08-05T02:10:33.216Z,95
2022-08-05T02:11:01.206Z,95
2022-08-05T02:11:33.615Z,95
2022-08-05T02:12:03.059Z,95
2022-08-05T02:12:39.406Z,95
2022-08-05T02:13:04.782Z,95
2022-08-05T02:13:53.093Z,95
2022-08-05T02:14:07.047Z,95
2022-08-05T02:14:38.765Z,95
2022-08-05T02:15:12.681Z,95
2022-08-05T02:15:42.583Z,95
2022-08-05T02:16:16.302Z,95
2022-08-05T02:16:42.173Z,95
2022-08-05T02:17:29.939Z,95
2022-08-05T02:18:45.845Z,95
2022-08-05T02:19:17.055Z,95
2022-08-05T02:19:47.985Z,95
2022-08-05T02:20:20.847Z,95
2022-08-05T02:20:49.525Z,95
2022-08-05T02:21:21.206Z,95
2022-08-05T02:21:52.257Z,95
2022-08-05T02:22:26.120Z,95
2022-08-05T02:22:54.018Z,95
2022-08-05T02:23:25.005Z,95
2022-08-05T02:23:58.459Z,95
2022-08-05T02:24:26.494Z,95
2022-08-05T02:24:58.022Z,95
2022-08-05T02:25:33.392Z,95
2022-08-05T02:26:00.013Z,95
2022-08-05T02:26:30.766Z,95
2022-08-05T02:27:09.131Z,95
2022-08-05T02:27:58.134Z,95
2022-08-05T02:28:08.633Z,95
2022-08-05T02:28:38.255Z,95
2022-08-05T02:29:05.524Z,95
2022-08-05T02:29:59.979Z,95
2022-08-05T02:30:08.663Z,95
2022-08-05T02:30:51.749Z,95
2022-08-05T02:31:14.339Z,95
2022-08-05T02:31:41.022Z,95
2022-08-05T02:32:11.885Z,95
2022-08-05T02:32:43.137Z,95
2022-08-05T02:33:14.304Z,95
2022-08-05T02:33:45.266Z,95
2022-08-05T02:34:16.166Z,95
2022-08-05T02:34:54.978Z,95
2022-08-05T02:35:28.336Z,95
2022-08-05T02:35:55.963Z,95
2022-08-05T02:36:20.020Z,95
2022-08-05T02:36:51.100Z,95
2022-08-05T02:37:22.142Z,95
2022-08-05T02:37:54.167Z,95
2022-08-05T02:38:26.986Z,95
2022-08-05T02:38:55.545Z,95
2022-08-05T02:39:26.412Z,95
2022-08-05T02:39:57.181Z,95
2022-08-05T02:40:28.206Z,95
2022-08-05T02:40:58.847Z,95
2022-08-05T02:41:42.991Z,95
2022-08-05T02:42:01.647Z,95
2022-08-05T02:42:36.147Z,95
2022-08-05T02:43:03.064Z,95
2022-08-05T02:43:36.025Z,95
2022-08-05T02:44:36.246Z,95
2022-08-05T02:45:12.138Z,95
2022-08-05T02:45:52.382Z,95
2022-08-05T02:46:10.018Z,95
2022-08-05T02:46:53.570Z,95
2022-08-05T02:47:11.085Z,95
2022-08-05T02:48:06.825Z,95
2022-08-05T02:48:43.564Z,95
2022-08-05T02:49:15.245Z,95
2022-08-05T02:49:45.609Z,95
2022-08-05T02:50:18.201Z,95
2022-08-05T02:50:48.409Z,95
2022-08-05T02:51:18.766Z,95
2022-08-05T02:52:03.094Z,95
2022-08-05T02:52:29.754Z,95
2022-08-05T02:52:54.597Z,95
2022-08-05T02:53:24.005Z,95
2022-08-05T02:53:54.767Z,95
2022-08-05T02:54:36.189Z,95
2022-08-05T02:54:56.244Z,95
2022-08-05T02:55:54.420Z,95
2022-08-05T02:56:29.658Z,95
2022-08-05T02:57:00.077Z,95
2022-08-05T02:58:12.050Z,95
2022-08-05T02:58:33.093Z,95
2022-08-05T02:59:03.984Z,95
2022-08-05T02:59:50.376Z,95
2022-08-05T03:00:06.743Z,95
2022-08-05T03:00:40.086Z,95
2022-08-05T03:01:08.372Z,95
2022-08-05T03:01:39.523Z,95
2022-08-05T03:02:10.134Z,95
2022-08-05T03:02:41.286Z,95
2022-08-05T03:03:15.298Z,95
2022-08-05T03:04:03.466Z,95
2022-08-05T03:04:44.848Z,96
2022-08-05T03:05:16.739Z,96
2022-08-05T03:06:56.650Z,96
2022-08-05T03:07:59.114Z,96
2022-08-05T03:08:29.898Z,96
2022-08-05T03:08:53.126Z,96
2022-08-05T03:09:36.560Z,96
2022-08-05T03:09:54.983Z,96
2022-08-05T03:10:26.459Z,96
2022-08-05T03:11:53.836Z,96
2022-08-05T03:11:59.139Z,96
2022-08-05T03:12:30.294Z,96
2022-08-05T03:13:51.940Z,96
2022-08-05T03:14:33.980Z,95
2022-08-05T03:15:06.735Z,95
2022-08-05T03:15:40.844Z,96
2022-08-05T03:16:07.458Z,96
2022-08-05T03:16:40.097Z,96
2022-08-05T03:17:09.239Z,96
2022-08-05T03:17:41.901Z,96
2022-08-05T03:18:11.056Z,96
2022-08-05T03:18:47.736Z,96
2022-08-05T03:19:20.299Z,96
2022-08-05T03:19:46.823Z,96
2022-08-05T03:20:15.463Z,96
2022-08-05T03:20:49.050Z,96
2022-08-05T03:21:17.023Z,96
2022-08-05T03:21:49.721Z,96
2022-08-05T03:22:31.960Z,96
2022-08-05T03:22:50.626Z,96
2022-08-05T03:23:24.191Z,96
2022-08-05T03:23:53.570Z,96
2022-08-05T03:26:58.490Z,96
2022-08-05T03:27:29.626Z,96
2022-08-05T03:28:03.301Z,96
2022-08-05T03:28:31.245Z,96
2022-08-05T03:29:02.213Z,96
2022-08-05T03:29:44.670Z,95
2022-08-05T03:30:07.231Z,95
2022-08-05T03:30:35.368Z,95
2022-08-05T03:31:06.537Z,95
2022-08-05T03:31:56.211Z,96
2022-08-05T03:32:08.639Z,95
2022-08-05T03:32:39.502Z,95
2022-08-05T03:33:10.104Z,95
2022-08-05T03:33:52.724Z,95
2022-08-05T03:34:12.258Z,95
2022-08-05T03:34:51.110Z,95
2022-08-05T03:35:14.098Z,95
2022-08-05T03:35:45.184Z,95
2022-08-05T03:36:16.463Z,95
2022-08-05T03:36:47.017Z,95
2022-08-05T03:37:20.999Z,95
2022-08-05T03:37:49.543Z,95
2022-08-05T03:38:32.733Z,95
2022-08-05T03:38:52.529Z,95
2022-08-05T03:39:27.128Z,95
2022-08-05T03:39:59.149Z,95
2022-08-05T03:40:31.813Z,95
2022-08-05T03:40:55.409Z,95
2022-08-05T03:41:26.186Z,95
2022-08-05T03:42:00.022Z,95
2022-08-05T03:42:29.034Z,95
2022-08-05T03:43:58.793Z,95
2022-08-05T03:44:32.257Z,95
2022-08-05T03:45:21.476Z,95
2022-08-05T03:45:57.884Z,95
2022-08-05T03:46:05.405Z,95
2022-08-05T03:46:36.367Z,95
2022-08-05T03:47:08.325Z,95
2022-08-05T03:47:41.342Z,95
2022-08-05T03:48:10.173Z,95
2022-08-05T03:48:40.330Z,95
2022-08-05T03:49:12.644Z,95
2022-08-05T03:49:51.606Z,95
2022-08-05T03:50:16.749Z,95
2022-08-05T03:50:44.128Z,95
2022-08-05T03:52:37.187Z,95
2022-08-05T03:56:05.120Z,95
2022-08-05T03:56:30.547Z,95
2022-08-05T03:56:56.183Z,95
2022-08-05T03:57:41.645Z,95
2022-08-05T03:58:04.178Z,95
2022-08-05T03:58:32.532Z,95
2022-08-05T03:59:03.156Z,95
2022-08-05T03:59:46.922Z,95
2022-08-05T04:00:03.051Z,95
2022-08-05T04:00:33.099Z,95
2022-08-05T04:01:04.421Z,95
2022-08-05T04:01:35.612Z,95
2022-08-05T04:02:06.298Z,94
2022-08-05T04:02:38.730Z,94
2022-08-05T04:03:08.685Z,94
2022-08-05T04:03:39.245Z,94
2022-08-05T04:04:10.907Z,94
2022-08-05T04:04:41.406Z,94
2022-08-05T04:05:12.862Z,94
2022-08-05T04:05:43.339Z,94
2022-08-05T04:06:14.485Z,94
2022-08-05T04:06:51.689Z,94
2022-08-05T04:07:16.651Z,93
2022-08-05T04:07:57.220Z,93
2022-08-05T04:08:30.414Z,93
2022-08-05T04:08:49.693Z,93
2022-08-05T04:09:26.524Z,93
2022-08-05T04:09:53.570Z,92
2022-08-05T04:10:22.773Z,92
2022-08-05T04:10:53.501Z,92
2022-08-05T04:11:24.479Z,91
2022-08-05T04:11:56.515Z,91
2022-08-05T04:12:26.495Z,91
2022-08-05T04:12:58.921Z,91
2022-08-05T04:13:51.046Z,91
2022-08-05T04:13:59.538Z,91
2022-08-05T04:14:31.130Z,91
2022-08-05T04:15:02.935Z,91
2022-08-05T04:15:35.901Z,91
2022-08-05T04:16:04.899Z,90
2022-08-05T04:16:42.983Z,90
2022-08-05T04:17:05.453Z,90
2022-08-05T04:17:57.397Z,90
2022-08-05T04:18:09.305Z,90
2022-08-05T04:18:40.263Z,90
2022-08-05T04:19:10.551Z,90
2022-08-05T04:19:42.618Z,90
2022-08-05T04:20:12.057Z,90
2022-08-05T04:20:46.245Z,90
2022-08-05T04:21:13.783Z,90
2022-08-05T04:22:21.543Z,90
2022-08-05T04:22:53.138Z,90
2022-08-05T04:23:18.007Z,90
2022-08-05T04:24:22.774Z,89
2022-08-05T04:24:52.524Z,89
2022-08-05T04:25:38.284Z,89
2022-08-05T04:26:24.418Z,89
2022-08-05T04:26:54.485Z,89
2022-08-05T04:27:41.824Z,89
2022-08-05T04:27:59.693Z,89
2022-08-05T04:28:30.659Z,89
2022-08-05T04:28:58.659Z,89
2022-08-05T04:29:29.079Z,89
2022-08-05T04:30:03.744Z,88
2022-08-05T04:30:32.245Z,88
2022-08-05T04:31:05.165Z,88
2022-08-05T04:31:38.714Z,87
2022-08-05T04:32:07.464Z,87
2022-08-05T04:32:36.472Z,87
2022-08-05T04:33:06.222Z,87
2022-08-05T04:34:18.975Z,87
2022-08-05T04:34:48.007Z,86
2022-08-05T04:35:17.600Z,86
2022-08-05T04:36:16.321Z,86
2022-08-05T04:36:46.202Z,86
2022-08-05T04:37:14.013Z,85
2022-08-05T04:38:01.373Z,86
2022-08-05T04:38:19.543Z,86
2022-08-05T04:38:51.023Z,86
2022-08-05T04:39:18.642Z,86
2022-08-05T04:39:52.835Z,87
2022-08-05T04:40:21.453Z,87
2022-08-05T04:40:54.655Z,87
2022-08-05T04:41:22.486Z,87
2022-08-05T04:41:54.191Z,88
2022-08-05T04:42:25.465Z,88
2022-08-05T04:43:04.299Z,88
2022-08-05T04:43:28.677Z,88
2022-08-05T04:44:00.503Z,88
2022-08-05T04:44:29.967Z,88
2022-08-05T04:44:59.622Z,89
2022-08-05T04:45:48.236Z,89
2022-08-05T04:46:01.484Z,89
2022-08-05T04:46:32.535Z,89
2022-08-05T04:47:09.923Z,89
2022-08-05T04:47:38.640Z,89
2022-08-05T04:48:05.697Z,89
2022-08-05T04:48:36.618Z,89
2022-08-05T04:49:12.395Z,89
2022-08-05T04:50:02.685Z,89
2022-08-05T04:50:34.346Z,89
2022-08-05T04:51:01.696Z,89
2022-08-05T04:51:13.423Z,89
2022-08-05T04:51:42.674Z,89
2022-08-05T04:52:14.566Z,89
2022-08-05T04:52:44.644Z,88
2022-08-05T04:53:15.045Z,88
2022-08-05T04:53:46.503Z,88
2022-08-05T04:54:18.104Z,88
2022-08-05T04:54:49.332Z,87
2022-08-05T04:55:21.070Z,87
2022-08-05T04:56:34.844Z,87
2022-08-05T04:56:55.291Z,88
2022-08-05T04:57:29.672Z,88
2022-08-05T04:57:54.568Z,88
2022-08-05T04:58:25.861Z,88
2022-08-05T04:58:57.129Z,88
2022-08-05T04:59:39.045Z,87
2022-08-05T04:59:58.960Z,86
2022-08-05T05:00:30.486Z,86
2022-08-05T05:01:03.639Z,86
2022-08-05T05:02:05.709Z,86
2022-08-05T05:02:36.680Z,85
2022-08-05T05:03:08.840Z,85
2022-08-05T05:03:42.294Z,85
2022-08-05T05:04:06.057Z,85
2022-08-05T05:04:38.144Z,85
2022-08-05T05:05:25.860Z,85
2022-08-05T05:06:35.979Z,86
2022-08-05T05:07:17.013Z,86
2022-08-05T05:07:45.775Z,86
2022-08-05T05:08:30.108Z,85
2022-08-05T05:08:45.577Z,85
2022-08-05T05:09:17.470Z,85
2022-08-05T05:09:47.877Z,86
2022-08-05T05:10:19.756Z,86
2022-08-05T05:10:56.008Z,86
2022-08-05T05:11:20.823Z,86
2022-08-05T05:11:54.012Z,86
2022-08-05T05:12:22.765Z,86
2022-08-05T05:12:53.853Z,87
2022-08-05T05:13:24.926Z,85
2022-08-05T05:13:55.693Z,85
2022-08-05T05:14:28.091Z,85
2022-08-05T05:14:57.774Z,84
2022-08-05T05:15:57.365Z,83
2022-08-05T05:16:30.579Z,85
2022-08-05T05:17:01.616Z,86
2022-08-05T05:17:56.882Z,86
2022-08-05T05:18:03.142Z,86
2022-08-05T05:18:35.654Z,86
2022-08-05T05:19:18.607Z,87
2022-08-05T05:19:44.286Z,87
2022-08-05T05:20:08.044Z,87
2022-08-05T05:20:38.972Z,87
2022-08-05T05:21:09.750Z,87
2022-08-05T05:21:42.364Z,86
2022-08-05T05:22:23.713Z,86
2022-08-05T05:22:44.372Z,86
2022-08-05T05:23:19.826Z,85
2022-08-05T05:24:02.946Z,84
2022-08-05T05:24:15.583Z,83
2022-08-05T05:24:57.038Z,84
2022-08-05T05:25:19.342Z,84
2022-08-05T05:25:49.025Z,85
2022-08-05T05:26:19.975Z,85
2022-08-05T05:26:51.920Z,85
2022-08-05T05:27:22.861Z,84
2022-08-05T05:27:53.945Z,84
2022-08-05T05:28:23.725Z,84
2022-08-05T05:28:57.648Z,84
2022-08-05T05:29:40.851Z,85
2022-08-05T05:30:33.261Z,85
2022-08-05T05:31:01.810Z,83
2022-08-05T05:31:35.887Z,83
2022-08-05T05:32:00.699Z,84
2022-08-05T05:32:31.657Z,80
2022-08-05T05:33:16.226Z,82
2022-08-05T05:33:58.954Z,83
2022-08-05T05:34:04.664Z,84
2022-08-05T05:34:37.804Z,83
2022-08-05T05:35:07.365Z,82
2022-08-05T05:35:38.073Z,83
2022-08-05T05:36:08.173Z,82
2022-08-05T05:36:39.820Z,83
2022-08-05T05:37:10.492Z,83
2022-08-05T05:37:59.574Z,83
2022-08-05T05:38:13.694Z,83
2022-08-05T05:38:43.758Z,83
2022-08-05T05:39:14.304Z,84
2022-08-05T05:39:45.355Z,84
2022-08-05T05:40:22.974Z,82
2022-08-05T05:40:51.587Z,83
2022-08-05T05:41:18.528Z,84
2022-08-05T05:41:54.414Z,83
2022-08-05T05:42:21.295Z,83
2022-08-05T05:42:54.805Z,84
2022-08-05T05:43:56.513Z,83
2022-08-05T05:44:36.528Z,82
2022-08-05T05:44:59.558Z,80
2022-08-05T05:45:27.618Z,78
2022-08-05T05:45:57.733Z,78
2022-08-05T05:46:28.942Z,76
2022-08-05T05:47:04.406Z,75
2022-08-05T05:48:05.401Z,74
2022-08-05T05:48:33.294Z,74
2022-08-05T05:49:06.586Z,74
2022-08-05T05:49:34.847Z,73
2022-08-05T05:50:08.836Z,72
2022-08-05T05:50:42.549Z,73
2022-08-05T05:51:15.758Z,73
2022-08-05T05:51:49.756Z,73
2022-08-05T05:52:25.527Z,75
2022-08-05T05:52:40.808Z,74
2022-08-05T05:53:21.164Z,72
2022-08-05T05:53:54.036Z,72
2022-08-05T05:54:18.405Z,73
2022-08-05T05:54:51.066Z,75
2022-08-05T05:55:19.343Z,73
2022-08-05T05:55:52.075Z,73
2022-08-05T05:56:26.026Z,72
2022-08-05T05:56:48.884Z,74
2022-08-05T05:57:22.087Z,74
2022-08-05T05:57:52.125Z,74
2022-08-05T05:58:21.843Z,76
2022-08-05T05:58:52.893Z,77
2022-08-05T05:59:23.264Z,77
2022-08-05T05:59:54.775Z,77
2022-08-05T06:00:31.316Z,78
2022-08-05T06:00:56.624Z,77
2022-08-05T06:01:36.977Z,78
2022-08-05T06:01:58.734Z,78
2022-08-05T06:02:32.437Z,77
2022-08-05T06:03:00.550Z,77
2022-08-05T06:03:53.731Z,77
2022-08-05T06:04:05.749Z,78
2022-08-05T06:04:33.916Z,79
2022-08-05T06:05:16.779Z,77
2022-08-05T06:05:36.764Z,76
2022-08-05T06:06:06.926Z,75
2022-08-05T06:06:37.858Z,73
2022-08-05T06:07:09.258Z,73
2022-08-05T06:07:42.139Z,73
2022-08-05T06:08:11.339Z,74
2022-08-05T06:08:42.144Z,74
2022-08-05T06:09:17.713Z,73
2022-08-05T06:09:59.918Z,73
2022-08-05T06:10:15.337Z,74
2022-08-05T06:10:52.371Z,73
2022-08-05T06:11:22.693Z,72
2022-08-05T06:11:48.867Z,72
2022-08-05T06:12:18.706Z,72
2022-08-05T06:12:49.743Z,72
2022-08-05T06:13:20.893Z,72
2022-08-05T06:13:54.122Z,73
2022-08-05T06:14:22.902Z,72
2022-08-05T06:14:54.085Z,72
2022-08-05T06:15:25.623Z,74
2022-08-05T06:16:58.361Z,74
2022-08-05T06:17:31.365Z,74
2022-08-05T06:18:00.264Z,74
2022-08-05T06:18:31.750Z,76
2022-08-05T06:19:05.487Z,74
2022-08-05T06:19:34.531Z,73
2022-08-05T06:20:04.178Z,72
2022-08-05T06:20:34.845Z,72
2022-08-05T06:21:16.495Z,72
2022-08-05T06:21:38.411Z,71
2022-08-05T06:22:09.983Z,72
2022-08-05T06:22:38.979Z,72
2022-08-05T06:23:09.644Z,70
2022-08-05T06:23:43.995Z,70
2022-08-05T06:24:12.699Z,71
2022-08-05T06:24:48.100Z,69
2022-08-05T06:25:24.360Z,70
2022-08-05T06:26:21.577Z,69
2022-08-05T06:26:52.029Z,69
2022-08-05T06:28:10.501Z,69
2022-08-05T06:28:51.048Z,69
2022-08-05T06:29:23.754Z,70
2022-08-05T06:30:04.208Z,69
2022-08-05T06:30:25.164Z,69
2022-08-05T06:30:54.893Z,69
2022-08-05T06:31:30.465Z,69
2022-08-05T06:31:56.725Z,69
2022-08-05T06:32:28.990Z,68
2022-08-05T06:33:01.245Z,68
2022-08-05T06:34:04.610Z,68
2022-08-05T06:34:35.103Z,69
2022-08-05T06:35:06.098Z,69
2022-08-05T06:36:07.802Z,68
2022-08-05T06:36:45.995Z,67
2022-08-05T06:37:07.063Z,68
2022-08-05T06:37:57.878Z,69
2022-08-05T06:38:12.081Z,68
2022-08-05T06:38:39.801Z,68
2022-08-05T06:39:14.069Z,68
2022-08-05T06:39:42.279Z,68
2022-08-05T06:40:13.941Z,69
2022-08-05T06:40:44.598Z,68
2022-08-05T06:41:15.206Z,68
2022-08-05T06:41:45.805Z,68
2022-08-05T06:42:17.218Z,68
2022-08-05T06:42:48.053Z,67
2022-08-05T06:43:57.835Z,68
2022-08-05T06:44:22.084Z,68
2022-08-05T06:44:54.685Z,69
2022-08-05T06:45:44.769Z,70
2022-08-05T06:46:30.219Z,69
2022-08-05T06:46:55.617Z,69
2022-08-05T06:48:11.571Z,68
2022-08-05T06:49:01.085Z,69
2022-08-05T06:50:00.759Z,68
2022-08-05T06:50:33.218Z,68
2022-08-05T06:51:11.301Z,67
2022-08-05T06:51:35.008Z,68
2022-08-05T06:52:05.942Z,68
2022-08-05T06:52:40.397Z,68
2022-08-05T06:53:11.646Z,67
2022-08-05T06:53:41.876Z,67
2022-08-05T06:54:09.978Z,68
2022-08-05T06:54:41.266Z,68
2022-08-05T06:55:12.374Z,68
2022-08-05T06:55:42.838Z,69
2022-08-05T06:56:26.525Z,68
2022-08-05T06:56:54.820Z,67
2022-08-05T06:58:03.375Z,67
2022-08-05T06:58:49.884Z,67
2022-08-05T06:59:19.964Z,68
2022-08-05T06:59:57.916Z,66
2022-08-05T07:00:24.990Z,66
2022-08-05T07:00:52.900Z,66
2022-08-05T07:01:31.989Z,66
2022-08-05T07:01:57.424Z,66
2022-08-05T07:02:26.373Z,66
2022-08-05T07:02:59.916Z,65
2022-08-05T07:03:32.832Z,66
2022-08-05T07:03:59.325Z,66
2022-08-05T07:04:33.336Z,66
2022-08-05T07:05:01.456Z,66
2022-08-05T07:05:37.848Z,65
2022-08-05T07:06:05.758Z,65
2022-08-05T07:06:34.301Z,66
2022-08-05T07:07:11.305Z,65
2022-08-05T07:07:43.769Z,65
2022-08-05T07:08:10.845Z,66
2022-08-05T07:08:37.604Z,66
2022-08-05T07:09:09.133Z,67
2022-08-05T07:09:40.579Z,66
2022-08-05T07:10:14.987Z,66
2022-08-05T07:10:52.757Z,67
2022-08-05T07:11:15.349Z,66
2022-08-05T07:11:47.893Z,66
2022-08-05T07:12:14.905Z,67
2022-08-05T07:12:49.343Z,66
2022-08-05T07:13:17.404Z,67
2022-08-05T07:14:28.868Z,67
2022-08-05T07:14:50.166Z,67
2022-08-05T07:15:34.485Z,67
2022-08-05T07:17:56.788Z,68
2022-08-05T07:18:29.132Z,67
2022-08-05T07:18:58.174Z,67
2022-08-05T07:20:23.028Z,66
2022-08-05T07:21:05.575Z,68
2022-08-05T07:22:00.547Z,67
2022-08-05T07:22:03.924Z,67
2022-08-05T07:22:36.685Z,68
2022-08-05T07:23:06.620Z,68
2022-08-05T07:23:36.965Z,67
2022-08-05T07:24:11.379Z,67
2022-08-05T07:24:43.807Z,68
2022-08-05T07:25:22.416Z,67
2022-08-05T07:26:13.320Z,67
2022-08-05T07:26:43.445Z,66
2022-08-05T07:27:16.862Z,65
2022-08-05T07:27:58.297Z,65
2022-08-05T07:28:17.430Z,65
2022-08-05T07:28:49.244Z,66
2022-08-05T07:29:18.557Z,65
2022-08-05T07:30:27.579Z,65
2022-08-05T07:30:52.972Z,65
2022-08-05T07:31:53.914Z,64
2022-08-05T07:32:26.268Z,65
2022-08-05T07:32:55.148Z,65
2022-08-05T07:33:36.544Z,65
2022-08-05T07:33:57.217Z,64
2022-08-05T07:34:28.684Z,64
2022-08-05T07:34:59.286Z,63
2022-08-05T07:36:03.137Z,63
2022-08-05T07:36:32.103Z,65
2022-08-05T07:37:03.119Z,63
2022-08-05T07:37:37.720Z,63
2022-08-05T07:38:04.943Z,65
2022-08-05T07:38:43.617Z,63
2022-08-05T07:39:07.844Z,63
2022-08-05T07:40:04.191Z,63
2022-08-05T07:40:44.539Z,63
2022-08-05T07:42:07.172Z,62
2022-08-05T07:42:44.014Z,60
2022-08-05T07:43:20.768Z,61
2022-08-05T07:43:46.344Z,60
2022-08-05T07:44:19.034Z,61
2022-08-05T07:44:48.299Z,61
2022-08-05T07:45:31.318Z,61
2022-08-05T07:46:25.342Z,60
2022-08-05T07:46:52.943Z,60
2022-08-05T07:47:25.877Z,61
2022-08-05T07:47:55.769Z,60
2022-08-05T07:49:03.405Z,60
2022-08-05T07:49:27.245Z,60
2022-08-05T07:49:58.005Z,60
2022-08-05T07:50:33.544Z,60
2022-08-05T07:51:00.223Z,59
2022-08-05T07:51:36.610Z,59
2022-08-05T07:52:01.783Z,58
2022-08-05T07:52:33.173Z,60
2022-08-05T07:53:05.023Z,60
2022-08-05T07:53:36.916Z,59
2022-08-05T07:54:06.426Z,58
2022-08-05T07:54:41.130Z,59
2022-08-05T07:55:15.855Z,60
2022-08-05T07:56:39.391Z,59
2022-08-05T07:57:57.345Z,57
2022-08-05T07:58:54.994Z,57
2022-08-05T07:59:17.129Z,56
2022-08-05T07:59:48.998Z,57
2022-08-05T08:00:22.526Z,56
2022-08-05T08:00:51.819Z,55
2022-08-05T08:01:22.238Z,56
2022-08-05T08:01:52.427Z,56
2022-08-05T08:02:22.197Z,56
2022-08-05T08:03:15.252Z,56
2022-08-05T08:03:24.254Z,56
2022-08-05T08:03:55.454Z,55
2022-08-05T08:04:37.858Z,56
2022-08-05T08:04:57.237Z,57
2022-08-05T08:05:29.183Z,55
2022-08-05T08:06:00.005Z,56
2022-08-05T08:06:34.325Z,54
2022-08-05T08:07:01.306Z,55
2022-08-05T08:07:39.573Z,57
2022-08-05T08:08:03.143Z,56
2022-08-05T08:08:33.797Z,55
2022-08-05T08:09:05.207Z,56